createdAt,value
2023-03-30T00:02:06.852Z,48.37
2023-03-30T00:04:37.694Z,48.80
2023-03-30T00:07:06.069Z,48.90
2023-03-30T00:09:34.457Z,49.22
2023-03-30T00:12:03.871Z,49.19
2023-03-30T00:14:37.777Z,49.14
2023-03-30T00:17:07.145Z,49.23
2023-03-30T00:19:38.912Z,49.22
2023-03-30T00:22:08.036Z,48.94
2023-03-30T00:24:36.931Z,49.07
2023-03-30T00:27:05.010Z,49.45
2023-03-30T00:29:33.210Z,49.49
2023-03-30T00:32:01.670Z,49.57
2023-03-30T00:34:29.856Z,49.67
2023-03-30T00:36:58.340Z,49.81
2023-03-30T00:39:26.854Z,49.86
2023-03-30T00:41:55.221Z,49.78
2023-03-30T00:44:42.529Z,49.77
2023-03-30T00:47:11.119Z,49.98
2023-03-30T00:49:39.609Z,50.29
2023-03-30T00:52:08.733Z,50.31
2023-03-30T00:54:37.095Z,50.81
2023-03-30T00:57:06.754Z,50.56
2023-03-30T00:59:35.287Z,51.14
2023-03-30T01:02:07.438Z,51.14
2023-03-30T01:04:37.817Z,51.13
2023-03-30T01:07:06.174Z,50.62
2023-03-30T01:09:36.812Z,50.89
2023-03-30T01:12:05.549Z,51.03
2023-03-30T01:14:34.301Z,51.18
2023-03-30T01:17:09.540Z,51.16
2023-03-30T01:20:13.124Z,51.65
2023-03-30T01:22:41.732Z,51.79
2023-03-30T01:25:26.456Z,52.12
2023-03-30T01:27:57.721Z,51.96
2023-03-30T01:30:45.170Z,51.88
2023-03-30T01:33:32.361Z,52.16
2023-03-30T01:36:06.390Z,52.35
2023-03-30T01:38:46.634Z,52.45
2023-03-30T01:41:14.904Z,52.47
2023-03-30T01:43:49.431Z,52.22
2023-03-30T01:46:25.503Z,52.50
2023-03-30T01:49:12.565Z,52.42
2023-03-30T01:51:42.946Z,52.53
2023-03-30T01:54:14.075Z,52.62
2023-03-30T01:56:46.592Z,52.38
2023-03-30T01:59:27.625Z,52.88
2023-03-30T02:02:00.919Z,52.86
2023-03-30T02:04:30.637Z,53.07
2023-03-30T02:07:01.276Z,53.24
2023-03-30T02:09:30.482Z,53.19
2023-03-30T02:12:00.706Z,53.25
2023-03-30T02:14:32.736Z,53.54
2023-03-30T02:17:04.022Z,53.41
2023-03-30T02:19:34.043Z,53.65
2023-03-30T02:22:02.429Z,54.64
2023-03-30T02:24:32.847Z,54.63
2023-03-30T02:27:04.414Z,54.54
2023-03-30T02:29:35.493Z,54.32
2023-03-30T02:32:04.416Z,54.15
2023-03-30T02:34:52.390Z,54.51
2023-03-30T02:37:24.456Z,54.39
2023-03-30T02:40:14.231Z,54.62
2023-03-30T02:43:03.591Z,55.12
2023-03-30T02:45:51.657Z,55.07
2023-03-30T02:48:37.916Z,54.61
2023-03-30T02:51:06.701Z,55.05
2023-03-30T02:53:55.364Z,55.30
2023-03-30T02:56:42.289Z,54.95
2023-03-30T02:59:19.736Z,54.85
2023-03-30T03:01:53.711Z,55.24
2023-03-30T03:04:22.869Z,54.76
2023-03-30T03:07:11.318Z,55.26
2023-03-30T03:09:43.789Z,55.04
2023-03-30T03:12:12.796Z,55.34
2023-03-30T03:14:43.425Z,55.22
2023-03-30T03:17:15.520Z,55.51
2023-03-30T03:19:46.644Z,55.21
2023-03-30T03:22:15.327Z,55.27
2023-03-30T03:24:45.047Z,55.03
2023-03-30T03:27:40.087Z,54.85
2023-03-30T03:30:19.985Z,54.37
2023-03-30T03:32:56.088Z,54.43
2023-03-30T03:35:25.456Z,54.47
2023-03-30T03:37:53.856Z,54.53
2023-03-30T03:40:22.317Z,54.44
2023-03-30T03:42:50.646Z,54.34
2023-03-30T03:45:19.956Z,54.80
2023-03-30T03:47:59.860Z,55.36
2023-03-30T03:50:41.907Z,54.92
2023-03-30T03:53:10.858Z,54.39
2023-03-30T03:55:39.027Z,54.83
2023-03-30T03:58:07.556Z,54.83
2023-03-30T04:00:38.070Z,54.71
2023-03-30T04:03:06.572Z,54.62
2023-03-30T04:05:35.538Z,54.72
2023-03-30T04:08:03.936Z,54.68
2023-03-30T04:10:32.817Z,54.77
2023-03-30T04:13:21.886Z,54.53
2023-03-30T04:16:19.869Z,54.60
2023-03-30T04:19:09.366Z,54.67
2023-03-30T04:21:55.897Z,54.64
2023-03-30T04:24:36.252Z,54.55
2023-03-30T04:27:42.918Z,54.70
2023-03-30T04:30:30.853Z,54.23
2023-03-30T04:33:38.232Z,54.14
2023-03-30T04:36:38.647Z,54.02
2023-03-30T04:39:30.449Z,54.16
2023-03-30T04:42:20.446Z,53.88
2023-03-30T04:45:18.732Z,54.06
2023-03-30T04:48:10.928Z,53.55
2023-03-30T04:51:02.349Z,53.47
2023-03-30T04:53:39.628Z,53.49
2023-03-30T04:56:33.997Z,53.42
2023-03-30T04:59:11.182Z,53.35
2023-03-30T05:02:13.002Z,52.92
2023-03-30T05:04:54.114Z,53.09
2023-03-30T05:07:42.762Z,52.87
2023-03-30T05:10:30.069Z,52.76
2023-03-30T05:13:37.036Z,52.67
2023-03-30T05:16:28.479Z,52.32
2023-03-30T05:19:15.958Z,52.48
2023-03-30T05:21:59.699Z,52.15
2023-03-30T05:24:52.444Z,52.63
2023-03-30T05:27:34.329Z,51.97
2023-03-30T05:30:20.827Z,52.21
2023-03-30T05:33:18.941Z,51.75
2023-03-30T05:36:19.815Z,51.57
2023-03-30T05:39:22.904Z,51.34
2023-03-30T05:42:06.010Z,51.17
2023-03-30T05:44:45.238Z,51.11
2023-03-30T05:47:53.162Z,51.23
2023-03-30T05:50:36.761Z,51.25
2023-03-30T05:53:06.990Z,50.99
2023-03-30T05:56:08.281Z,50.94
2023-03-30T05:58:48.172Z,50.48
2023-03-30T06:01:40.396Z,50.76
2023-03-30T06:04:12.062Z,50.56
2023-03-30T06:06:41.030Z,50.53
2023-03-30T06:09:11.379Z,50.57
2023-03-30T06:11:39.769Z,50.50
2023-03-30T06:14:17.869Z,50.32
2023-03-30T06:16:57.419Z,50.22
2023-03-30T06:19:26.317Z,49.54
2023-03-30T06:21:54.800Z,49.33
2023-03-30T06:24:49.068Z,49.23
2023-03-30T06:27:20.358Z,49.34
2023-03-30T06:29:48.813Z,49.34
2023-03-30T06:32:17.902Z,49.16
2023-03-30T06:35:01.880Z,49.21
2023-03-30T06:37:35.044Z,49.07
2023-03-30T06:40:29.616Z,48.87
2023-03-30T06:42:58.205Z,47.96
2023-03-30T06:45:43.538Z,47.46
2023-03-30T06:48:12.031Z,46.38
2023-03-30T06:50:41.061Z,46.84
2023-03-30T06:53:20.304Z,47.00
2023-03-30T06:55:53.081Z,46.45
2023-03-30T06:58:22.912Z,46.46
2023-03-30T07:00:51.923Z,45.98
2023-03-30T07:03:46.499Z,45.37
2023-03-30T07:06:26.129Z,45.28
2023-03-30T07:08:54.707Z,45.05
2023-03-30T07:11:26.684Z,45.11
2023-03-30T07:13:56.719Z,45.16
2023-03-30T07:16:25.880Z,44.23
2023-03-30T07:18:54.869Z,43.97
2023-03-30T07:21:26.259Z,44.14
2023-03-30T07:23:54.531Z,42.35
2023-03-30T07:26:31.206Z,42.31
2023-03-30T07:29:05.531Z,42.83
2023-03-30T07:31:34.495Z,42.71
2023-03-30T07:34:04.569Z,42.91
2023-03-30T07:36:36.554Z,42.83
2023-03-30T07:39:05.010Z,42.57
2023-03-30T07:41:33.895Z,42.21
2023-03-30T07:44:03.126Z,42.31
2023-03-30T07:46:31.867Z,40.96
2023-03-30T07:49:00.374Z,40.43
2023-03-30T07:51:28.657Z,39.42
2023-03-30T07:54:19.671Z,40.17
2023-03-30T07:57:12.416Z,39.07
2023-03-30T07:59:40.953Z,38.38
2023-03-30T08:02:16.939Z,38.95
2023-03-30T08:04:48.392Z,38.46
2023-03-30T08:07:20.366Z,37.05
2023-03-30T08:09:50.178Z,36.65
2023-03-30T08:12:18.365Z,36.82
2023-03-30T08:14:46.565Z,36.62
2023-03-30T08:17:14.822Z,36.99
2023-03-30T08:19:43.309Z,37.05
2023-03-30T08:22:12.101Z,36.84
2023-03-30T08:24:40.185Z,36.06
2023-03-30T08:27:08.410Z,36.45
2023-03-30T08:29:36.867Z,36.00
2023-03-30T08:32:05.405Z,35.23
2023-03-30T08:34:36.069Z,35.60
2023-03-30T08:37:05.890Z,34.78
2023-03-30T08:39:34.173Z,35.09
2023-03-30T08:42:12.784Z,34.28
2023-03-30T08:44:43.167Z,33.30
2023-03-30T08:47:31.612Z,33.63
2023-03-30T08:50:23.173Z,33.40
2023-03-30T08:52:52.824Z,33.44
2023-03-30T08:55:28.970Z,33.41
2023-03-30T08:57:59.888Z,32.35
2023-03-30T09:00:37.287Z,32.10
2023-03-30T09:03:16.423Z,32.41
2023-03-30T09:06:04.853Z,32.13
2023-03-30T09:08:33.679Z,32.06
2023-03-30T09:11:06.288Z,31.01
2023-03-30T09:13:38.499Z,31.08
2023-03-30T09:16:18.940Z,30.69
2023-03-30T09:18:51.438Z,29.18
2023-03-30T09:21:26.008Z,30.35
2023-03-30T09:23:56.402Z,30.30
2023-03-30T09:26:34.900Z,28.77
2023-03-30T09:29:10.881Z,26.41
2023-03-30T09:31:44.617Z,26.81
2023-03-30T09:34:28.403Z,27.33
2023-03-30T09:37:03.341Z,24.92
2023-03-30T09:39:33.658Z,25.15
2023-03-30T09:42:14.137Z,24.85
2023-03-30T09:44:51.927Z,24.48
2023-03-30T09:47:26.715Z,23.99
2023-03-30T09:49:55.912Z,24.24
2023-03-30T09:52:25.880Z,23.83
2023-03-30T09:54:54.687Z,21.57
2023-03-30T09:57:28.153Z,22.82
2023-03-30T09:59:57.217Z,22.65
2023-03-30T10:02:28.970Z,22.36
2023-03-30T10:05:12.049Z,19.75
2023-03-30T10:07:42.174Z,17.65
2023-03-30T10:10:15.850Z,18.78
2023-03-30T10:12:45.193Z,17.58
2023-03-30T10:15:21.515Z,17.64
2023-03-30T10:18:02.393Z,18.11
2023-03-30T10:20:36.566Z,16.51
2023-03-30T10:23:15.969Z,15.70
2023-03-30T10:25:46.411Z,15.72
2023-03-30T10:28:21.962Z,16.07
2023-03-30T10:30:52.391Z,17.44
2023-03-30T10:33:21.093Z,16.98
2023-03-30T10:35:53.601Z,16.14
2023-03-30T10:38:22.759Z,15.72
2023-03-30T10:40:55.955Z,14.34
2023-03-30T10:43:28.249Z,13.82
2023-03-30T10:46:12.628Z,13.68
2023-03-30T10:49:08.823Z,14.96
2023-03-30T10:51:51.304Z,14.13
2023-03-30T10:54:21.125Z,14.08
2023-03-30T10:56:49.344Z,13.84
2023-03-30T10:59:23.824Z,13.36
2023-03-30T11:01:52.622Z,14.11
2023-03-30T11:04:40.238Z,13.83
2023-03-30T11:07:13.525Z,13.16
2023-03-30T11:09:47.037Z,13.51
2023-03-30T11:12:17.757Z,14.08
2023-03-30T11:14:46.183Z,14.90
2023-03-30T11:17:24.035Z,14.48
2023-03-30T11:19:55.964Z,13.52
2023-03-30T11:22:53.581Z,12.27
2023-03-30T11:25:27.652Z,12.02
2023-03-30T11:28:04.161Z,11.74
2023-03-30T11:30:34.245Z,11.88
2023-03-30T11:33:18.151Z,12.36
2023-03-30T11:35:47.888Z,12.68
2023-03-30T11:38:35.592Z,12.72
2023-03-30T11:41:12.947Z,13.55
2023-03-30T11:43:41.762Z,14.65
2023-03-30T11:46:12.841Z,14.03
2023-03-30T11:48:57.654Z,13.80
2023-03-30T11:51:46.094Z,13.76
2023-03-30T11:54:46.985Z,14.36
2023-03-30T11:57:24.238Z,13.12
2023-03-30T11:59:52.483Z,13.66
2023-03-30T12:02:31.994Z,14.11
2023-03-30T12:05:22.104Z,13.51
2023-03-30T12:07:56.832Z,14.21
2023-03-30T12:10:39.239Z,13.14
2023-03-30T12:13:12.658Z,13.66
2023-03-30T12:15:41.242Z,12.65
2023-03-30T12:18:19.639Z,12.67
2023-03-30T12:21:09.515Z,12.40
2023-03-30T12:23:54.752Z,12.83
2023-03-30T12:26:29.002Z,13.19
2023-03-30T12:29:35.991Z,11.86
2023-03-30T12:31:47.485Z,12.06
2023-03-30T12:34:16.258Z,12.02
2023-03-30T12:36:49.476Z,11.94
2023-03-30T12:39:31.233Z,11.56
2023-03-30T12:42:07.417Z,11.30
2023-03-30T12:44:48.285Z,10.61
2023-03-30T12:47:22.867Z,11.22
2023-03-30T12:50:01.005Z,10.85
2023-03-30T12:52:35.225Z,9.73
2023-03-30T12:55:13.646Z,9.42
2023-03-30T12:57:53.912Z,10.18
2023-03-30T13:00:28.416Z,10.18
2023-03-30T13:03:10.128Z,9.08
2023-03-30T13:05:43.100Z,9.07
2023-03-30T13:08:32.981Z,8.33
2023-03-30T13:11:08.715Z,8.69
2023-03-30T13:13:49.278Z,8.93
2023-03-30T13:16:37.119Z,8.49
2023-03-30T13:19:24.117Z,8.71
2023-03-30T13:21:58.771Z,8.65
2023-03-30T13:24:36.202Z,8.00
2023-03-30T13:27:14.538Z,8.26
2023-03-30T13:29:48.966Z,8.29
2023-03-30T13:32:25.350Z,8.65
2023-03-30T13:35:03.682Z,8.63
2023-03-30T13:37:46.456Z,8.87
2023-03-30T13:40:27.657Z,8.38
2023-03-30T13:43:19.777Z,7.73
2023-03-30T13:46:00.396Z,7.26
2023-03-30T13:48:56.982Z,6.66
2023-03-30T13:51:27.698Z,7.41
2023-03-30T13:54:01.798Z,7.14
2023-03-30T13:56:31.618Z,6.29
2023-03-30T13:59:02.766Z,6.92
2023-03-30T14:01:31.369Z,6.40
2023-03-30T14:04:01.102Z,6.41
2023-03-30T14:06:31.167Z,6.89
2023-03-30T14:09:05.814Z,7.16
2023-03-30T14:12:01.132Z,6.29
2023-03-30T14:14:34.188Z,6.54
2023-03-30T14:17:04.739Z,6.08
2023-03-30T14:19:37.343Z,5.90
2023-03-30T14:22:16.423Z,6.44
2023-03-30T14:25:01.513Z,5.79
2023-03-30T14:27:35.631Z,5.89
2023-03-30T14:30:19.286Z,6.18
2023-03-30T14:32:47.643Z,6.30
2023-03-30T14:35:18.287Z,6.04
2023-03-30T14:37:52.152Z,5.77
2023-03-30T14:40:23.239Z,5.43
2023-03-30T14:42:51.625Z,5.61
2023-03-30T14:45:19.809Z,6.03
2023-03-30T14:47:48.626Z,5.93
2023-03-30T14:50:17.287Z,6.17
2023-03-30T14:52:46.801Z,5.98
2023-03-30T14:55:19.448Z,5.57
2023-03-30T14:57:48.287Z,6.04
2023-03-30T15:00:20.490Z,6.19
2023-03-30T15:02:50.778Z,5.74
2023-03-30T15:05:19.890Z,5.90
2023-03-30T15:07:49.693Z,6.38
2023-03-30T15:10:33.164Z,6.26
2023-03-30T15:13:03.599Z,6.81
2023-03-30T15:15:32.856Z,6.88
2023-03-30T15:18:03.553Z,7.34
2023-03-30T15:20:32.192Z,7.00
2023-03-30T15:23:01.108Z,7.26
2023-03-30T15:25:35.767Z,7.09
2023-03-30T15:28:09.717Z,7.73
2023-03-30T15:30:38.736Z,7.93
2023-03-30T15:33:18.977Z,7.97
2023-03-30T15:35:49.522Z,8.38
2023-03-30T15:38:19.058Z,8.92
2023-03-30T15:40:48.316Z,9.36
2023-03-30T15:43:18.271Z,10.05
2023-03-30T15:45:49.109Z,10.66
2023-03-30T15:48:22.776Z,11.33
2023-03-30T15:50:55.521Z,12.00
2023-03-30T15:53:33.479Z,12.44
2023-03-30T15:56:02.565Z,12.62
2023-03-30T15:58:31.361Z,12.90
2023-03-30T16:00:59.852Z,13.18
2023-03-30T16:03:39.660Z,13.71
2023-03-30T16:06:12.835Z,13.91
2023-03-30T16:08:43.852Z,14.01
2023-03-30T16:11:15.507Z,14.28
2023-03-30T16:13:45.620Z,14.49
2023-03-30T16:16:15.078Z,15.08
2023-03-30T16:18:43.321Z,15.76
2023-03-30T16:21:12.582Z,16.01
2023-03-30T16:23:40.891Z,16.64
2023-03-30T16:26:11.752Z,16.90
2023-03-30T16:28:42.947Z,17.57
2023-03-30T16:31:14.334Z,18.05
2023-03-30T16:33:42.615Z,18.65
2023-03-30T16:36:18.633Z,19.00
2023-03-30T16:38:47.173Z,18.96
2023-03-30T16:41:17.904Z,19.02
2023-03-30T16:43:46.284Z,19.46
2023-03-30T16:46:18.264Z,19.63
2023-03-30T16:48:46.943Z,19.25
2023-03-30T16:51:15.770Z,19.67
2023-03-30T16:53:44.029Z,20.31
2023-03-30T16:56:15.647Z,20.61
2023-03-30T16:58:44.105Z,20.32
2023-03-30T17:01:13.523Z,21.33
2023-03-30T17:03:42.196Z,21.76
2023-03-30T17:06:10.564Z,21.87
2023-03-30T17:08:40.517Z,21.89
2023-03-30T17:11:13.671Z,22.48
2023-03-30T17:13:43.326Z,22.41
2023-03-30T17:16:15.442Z,22.65
2023-03-30T17:18:43.623Z,23.08
2023-03-30T17:21:16.629Z,23.16
2023-03-30T17:23:48.008Z,24.06
2023-03-30T17:26:16.569Z,24.50
2023-03-30T17:28:44.735Z,24.37
2023-03-30T17:31:15.690Z,24.79
2023-03-30T17:33:44.306Z,25.36
2023-03-30T17:36:19.906Z,26.34
2023-03-30T17:38:48.609Z,27.14
2023-03-30T17:41:19.610Z,28.43
2023-03-30T17:43:48.679Z,27.98
2023-03-30T17:46:18.942Z,27.50
2023-03-30T17:48:47.874Z,27.16
2023-03-30T17:51:16.050Z,27.52
2023-03-30T17:53:44.277Z,28.04
2023-03-30T17:56:13.352Z,28.72
2023-03-30T17:58:41.517Z,28.96
2023-03-30T18:01:11.432Z,28.87
2023-03-30T18:03:39.974Z,29.83
2023-03-30T18:06:08.408Z,30.10
2023-03-30T18:08:39.969Z,29.87
2023-03-30T18:11:09.059Z,29.79
2023-03-30T18:13:38.270Z,30.25
2023-03-30T18:16:07.003Z,30.33
2023-03-30T18:18:35.970Z,30.70
2023-03-30T18:21:05.178Z,30.56
2023-03-30T18:23:34.843Z,30.73
2023-03-30T18:26:08.601Z,31.02
2023-03-30T18:28:40.670Z,31.46
2023-03-30T18:31:09.205Z,31.72
2023-03-30T18:33:37.618Z,31.53
2023-03-30T18:36:08.211Z,31.78
2023-03-30T18:38:36.940Z,32.28
2023-03-30T18:41:05.228Z,32.61
2023-03-30T18:43:33.726Z,32.90
2023-03-30T18:46:02.524Z,33.27
2023-03-30T18:48:35.599Z,33.16
2023-03-30T18:51:04.284Z,33.60
2023-03-30T18:53:32.582Z,34.12
2023-03-30T18:56:01.805Z,33.84
2023-03-30T18:58:31.646Z,34.50
2023-03-30T19:01:00.664Z,34.70
2023-03-30T19:03:30.280Z,34.93
2023-03-30T19:06:01.756Z,34.95
2023-03-30T19:08:31.168Z,34.92
2023-03-30T19:10:59.657Z,34.58
2023-03-30T19:13:28.691Z,34.72
2023-03-30T19:16:01.912Z,34.73
2023-03-30T19:18:30.442Z,34.62
2023-03-30T19:21:01.752Z,33.91
2023-03-30T19:23:30.480Z,33.19
2023-03-30T19:25:58.864Z,33.04
2023-03-30T19:28:27.487Z,32.97
2023-03-30T19:31:16.103Z,32.92
2023-03-30T19:33:45.715Z,33.44
2023-03-30T19:36:14.399Z,33.49
2023-03-30T19:38:44.201Z,33.91
2023-03-30T19:41:15.261Z,34.35
2023-03-30T19:43:45.796Z,34.72
2023-03-30T19:46:14.450Z,34.60
2023-03-30T19:48:43.291Z,34.55
2023-03-30T19:51:14.208Z,35.21
2023-03-30T19:53:42.510Z,35.73
2023-03-30T19:56:12.177Z,35.87
2023-03-30T19:58:40.811Z,35.54
2023-03-30T20:01:09.910Z,35.84
2023-03-30T20:03:38.315Z,36.50
2023-03-30T20:06:11.917Z,36.27
2023-03-30T20:08:41.004Z,36.32
2023-03-30T20:11:10.714Z,36.13
2023-03-30T20:13:45.568Z,36.28
2023-03-30T20:16:20.509Z,36.71
2023-03-30T20:18:50.831Z,36.45
2023-03-30T20:21:22.467Z,36.80
2023-03-30T20:23:53.351Z,36.81
2023-03-30T20:26:21.896Z,37.19
2023-03-30T20:28:50.586Z,36.78
2023-03-30T20:31:19.183Z,37.61
2023-03-30T20:33:47.459Z,38.01
2023-03-30T20:36:15.859Z,37.28
2023-03-30T20:38:46.067Z,38.49
2023-03-30T20:41:15.065Z,38.15
2023-03-30T20:43:56.996Z,38.02
2023-03-30T20:46:26.282Z,38.56
2023-03-30T20:48:55.162Z,38.79
2023-03-30T20:51:24.065Z,38.80
2023-03-30T20:53:52.340Z,39.16
2023-03-30T20:56:21.051Z,39.58
2023-03-30T20:58:50.032Z,39.28
2023-03-30T21:01:25.710Z,39.88
2023-03-30T21:03:55.006Z,40.68
2023-03-30T21:06:24.271Z,40.21
2023-03-30T21:08:54.727Z,40.02
2023-03-30T21:11:24.535Z,39.38
2023-03-30T21:13:54.766Z,39.52
2023-03-30T21:16:24.318Z,39.29
2023-03-30T21:18:52.663Z,39.46
2023-03-30T21:21:20.757Z,40.04
2023-03-30T21:23:49.033Z,40.14
2023-03-30T21:26:20.276Z,40.39
2023-03-30T21:28:48.966Z,40.62
2023-03-30T21:31:17.503Z,40.47
2023-03-30T21:33:45.940Z,41.02
2023-03-30T21:36:14.065Z,40.19
2023-03-30T21:38:42.402Z,40.77
2023-03-30T21:41:15.078Z,40.96
2023-03-30T21:43:44.698Z,41.25
2023-03-30T21:46:17.554Z,41.18
2023-03-30T21:48:46.466Z,40.44
2023-03-30T21:51:22.023Z,41.47
2023-03-30T21:53:51.633Z,40.99
2023-03-30T21:56:22.578Z,41.18
2023-03-30T21:58:51.282Z,41.37
2023-03-30T22:01:20.860Z,41.26
2023-03-30T22:03:56.701Z,41.14
2023-03-30T22:06:25.431Z,40.80
2023-03-30T22:08:54.540Z,40.72
2023-03-30T22:11:25.158Z,40.72
2023-03-30T22:13:55.461Z,40.98
2023-03-30T22:16:26.066Z,40.58
2023-03-30T22:18:54.973Z,41.04
2023-03-30T22:21:24.706Z,41.04
2023-03-30T22:23:54.967Z,40.76
2023-03-30T22:26:23.681Z,40.78
2023-03-30T22:28:51.920Z,40.88
2023-03-30T22:31:20.369Z,40.89
2023-03-30T22:33:52.694Z,41.04
2023-03-30T22:36:22.416Z,41.19
2023-03-30T22:38:51.736Z,40.95
2023-03-30T22:41:24.256Z,41.04
2023-03-30T22:43:53.714Z,41.15
2023-03-30T22:46:22.631Z,41.58
2023-03-30T22:48:52.730Z,41.49
2023-03-30T22:51:26.954Z,41.71
2023-03-30T22:54:00.114Z,41.26
2023-03-30T22:56:29.869Z,41.20
2023-03-30T22:59:00.270Z,41.45
2023-03-30T23:01:32.791Z,42.14
2023-03-30T23:04:01.298Z,42.09
2023-03-30T23:06:29.522Z,41.83
2023-03-30T23:08:58.831Z,41.81
2023-03-30T23:11:29.293Z,41.99
2023-03-30T23:13:58.152Z,41.98
2023-03-30T23:16:27.865Z,41.81
2023-03-30T23:18:56.661Z,41.48
2023-03-30T23:21:25.257Z,42.04
2023-03-30T23:23:53.326Z,42.18
2023-03-30T23:26:21.823Z,42.12
2023-03-30T23:28:50.308Z,41.93
2023-03-30T23:31:19.167Z,41.64
2023-03-30T23:33:47.270Z,41.83
2023-03-30T23:36:17.593Z,42.02
2023-03-30T23:38:46.602Z,42.19
2023-03-30T23:41:16.659Z,42.52
2023-03-30T23:43:45.522Z,42.42
2023-03-30T23:46:15.697Z,42.54
2023-03-30T23:48:44.648Z,42.95
2023-03-30T23:51:13.030Z,43.01
2023-03-30T23:53:41.908Z,43.00
2023-03-30T23:56:13.196Z,43.24
2023-03-30T23:58:41.624Z,43.44
